sensor_id;sensor_type;location;lat;lon;timestamp;pressure;altitude;pressure_sealevel;temperature;humidity
43683;BME280;29285;52.128;21.060;2022-12-29T00:03:54;100119.21;;;5.03;91.81
43683;BME280;29285;52.128;21.060;2022-12-29T00:08:56;100117.06;;;5.04;91.76
43683;BME280;29285;52.128;21.060;2022-12-29T00:13:57;100116.20;;;5.05;91.72
43683;BME280;29285;52.128;21.060;2022-12-29T00:19:17;100114.06;;;5.09;91.70
43683;BME280;29285;52.128;21.060;2022-12-29T00:24:37;100110.22;;;5.12;91.71
43683;BME280;29285;52.128;21.060;2022-12-29T00:29:57;100108.91;;;5.15;91.71
43683;BME280;29285;52.128;21.060;2022-12-29T00:35:32;100111.50;;;5.15;91.68
43683;BME280;29285;52.128;21.060;2022-12-29T00:40:36;100112.78;;;5.15;91.62
43683;BME280;29285;52.128;21.060;2022-12-29T00:45:56;100111.07;;;5.14;91.57
43683;BME280;29285;52.128;21.060;2022-12-29T00:50:57;100122.68;;;5.14;91.54
43683;BME280;29285;52.128;21.060;2022-12-29T00:55:59;100120.09;;;5.14;91.50
43683;BME280;29285;52.128;21.060;2022-12-29T01:01:03;100127.42;;;5.15;91.46
43683;BME280;29285;52.128;21.060;2022-12-29T01:06:09;100106.77;;;5.13;91.43
43683;BME280;29285;52.128;21.060;2022-12-29T01:11:12;100108.91;;;5.11;91.34
43683;BME280;29285;52.128;21.060;2022-12-29T01:16:13;100102.88;;;5.10;91.27
43683;BME280;29285;52.128;21.060;2022-12-29T01:21:15;100091.70;;;5.11;91.24
43683;BME280;29285;52.128;21.060;2022-12-29T01:26:17;100093.00;;;5.08;91.19
43683;BME280;29285;52.128;21.060;2022-12-29T01:31:19;100085.27;;;5.10;91.12
43683;BME280;29285;52.128;21.060;2022-12-29T01:36:20;100079.67;;;5.10;91.06
43683;BME280;29285;52.128;21.060;2022-12-29T01:41:22;100072.80;;;5.09;90.99
43683;BME280;29285;52.128;21.060;2022-12-29T01:46:41;100063.33;;;5.07;90.90
43683;BME280;29285;52.128;21.060;2022-12-29T01:51:50;100057.30;;;5.08;90.82
43683;BME280;29285;52.128;21.060;2022-12-29T01:56:55;100049.16;;;5.08;90.76
43683;BME280;29285;52.128;21.060;2022-12-29T02:01:58;100040.56;;;5.12;90.79
43683;BME280;29285;52.128;21.060;2022-12-29T02:07:03;100043.98;;;5.13;90.75
43683;BME280;29285;52.128;21.060;2022-12-29T02:12:10;100037.13;;;5.15;90.71
43683;BME280;29285;52.128;21.060;2022-12-29T02:34:17;100028.94;;;5.09;90.39
43683;BME280;29285;52.128;21.060;2022-12-29T02:54:50;100046.10;;;4.95;90.00
43683;BME280;29285;52.128;21.060;2022-12-29T02:59:57;100049.53;;;4.92;89.96
43683;BME280;29285;52.128;21.060;2022-12-29T03:05:17;100046.07;;;4.85;89.89
43683;BME280;29285;52.128;21.060;2022-12-29T03:15:50;100049.91;;;4.67;89.83
43683;BME280;29285;52.128;21.060;2022-12-29T03:21:10;100054.14;;;4.52;89.85
43683;BME280;29285;52.128;21.060;2022-12-29T03:26:16;100056.68;;;4.44;89.95
43683;BME280;29285;52.128;21.060;2022-12-29T03:31:21;100041.16;;;4.38;90.15
43683;BME280;29285;52.128;21.060;2022-12-29T03:36:35;100038.59;;;4.35;90.33
43683;BME280;29285;52.128;21.060;2022-12-29T03:41:34;100018.80;;;4.29;90.53
43683;BME280;29285;52.128;21.060;2022-12-29T03:46:36;100013.65;;;4.29;90.75
43683;BME280;29285;52.128;21.060;2022-12-29T03:51:37;99985.30;;;4.28;90.96
43683;BME280;29285;52.128;21.060;2022-12-29T03:56:39;99960.42;;;4.30;91.22
43683;BME280;29285;52.128;21.060;2022-12-29T04:01:40;99982.72;;;4.28;91.40
43683;BME280;29285;52.128;21.060;2022-12-29T04:06:42;99978.86;;;4.23;91.53
43683;BME280;29285;52.128;21.060;2022-12-29T04:11:43;99963.39;;;4.18;91.69
43683;BME280;29285;52.128;21.060;2022-12-29T04:16:44;99970.22;;;4.15;91.84
43683;BME280;29285;52.128;21.060;2022-12-29T04:21:46;99962.91;;;4.06;91.94
43683;BME280;29285;52.128;21.060;2022-12-29T04:26:47;99967.16;;;4.00;92.09
43683;BME280;29285;52.128;21.060;2022-12-29T04:31:48;99973.13;;;3.94;92.25
43683;BME280;29285;52.128;21.060;2022-12-29T04:36:50;99978.70;;;3.95;92.48
43683;BME280;29285;52.128;21.060;2022-12-29T04:41:51;99976.93;;;3.84;92.58
43683;BME280;29285;52.128;21.060;2022-12-29T04:46:53;99964.46;;;3.79;92.71
43683;BME280;29285;52.128;21.060;2022-12-29T04:51:54;99955.84;;;3.74;92.91
43683;BME280;29285;52.128;21.060;2022-12-29T04:56:55;99937.38;;;3.67;93.05
43683;BME280;29285;52.128;21.060;2022-12-29T05:01:57;99944.69;;;3.70;93.28
43683;BME280;29285;52.128;21.060;2022-12-29T05:06:58;99944.69;;;3.70;93.46
43683;BME280;29285;52.128;21.060;2022-12-29T05:11:59;99937.39;;;3.71;93.62
43683;BME280;29285;52.128;21.060;2022-12-29T05:17:01;99922.82;;;3.72;93.76
43683;BME280;29285;52.128;21.060;2022-12-29T05:22:02;99925.80;;;3.71;93.86
43683;BME280;29285;52.128;21.060;2022-12-29T05:27:04;99923.65;;;3.68;93.90
43683;BME280;29285;52.128;21.060;2022-12-29T05:32:05;99921.08;;;3.68;93.98
43683;BME280;29285;52.128;21.060;2022-12-29T05:37:06;99917.65;;;3.66;94.03
43683;BME280;29285;52.128;21.060;2022-12-29T05:42:08;99918.96;;;3.72;94.12
43683;BME280;29285;52.128;21.060;2022-12-29T05:47:09;99903.54;;;3.78;94.24
43683;BME280;29285;52.128;21.060;2022-12-29T05:52:11;99889.00;;;3.87;94.33
43683;BME280;29285;52.128;21.060;2022-12-29T05:57:12;99884.70;;;3.84;94.35
43683;BME280;29285;52.128;21.060;2022-12-29T06:02:13;99883.83;;;3.80;94.26
43683;BME280;29285;52.128;21.060;2022-12-29T06:07:15;99901.83;;;3.77;94.17
43683;BME280;29285;52.128;21.060;2022-12-29T06:12:16;99898.82;;;3.79;94.17
43683;BME280;29285;52.128;21.060;2022-12-29T06:17:18;99898.86;;;3.84;94.19
43683;BME280;29285;52.128;21.060;2022-12-29T06:22:19;99883.45;;;3.92;94.23
43683;BME280;29285;52.128;21.060;2022-12-29T06:27:20;99881.76;;;3.99;94.27
43683;BME280;29285;52.128;21.060;2022-12-29T06:32:22;99903.23;;;4.04;94.27
43683;BME280;29285;52.128;21.060;2022-12-29T06:37:23;99908.39;;;4.08;94.25
43683;BME280;29285;52.128;21.060;2022-12-29T06:42:25;99913.13;;;4.14;94.19
43683;BME280;29285;52.128;21.060;2022-12-29T06:47:26;99914.43;;;4.15;94.10
43683;BME280;29285;52.128;21.060;2022-12-29T06:52:28;99913.16;;;4.18;94.01
43683;BME280;29285;52.128;21.060;2022-12-29T06:57:29;99917.47;;;4.21;93.92
43683;BME280;29285;52.128;21.060;2022-12-29T07:02:30;99915.33;;;4.23;93.83
43683;BME280;29285;52.128;21.060;2022-12-29T07:07:31;99907.61;;;4.30;93.78
43683;BME280;29285;52.128;21.060;2022-12-29T07:12:33;99908.92;;;4.37;93.74
43683;BME280;29285;52.128;21.060;2022-12-29T07:17:34;99890.88;;;4.42;93.70
43683;BME280;29285;52.128;21.060;2022-12-29T07:22:38;99899.06;;;4.48;93.58
43683;BME280;29285;52.128;21.060;2022-12-29T07:27:39;99892.20;;;4.53;93.49
43683;BME280;29285;52.128;21.060;2022-12-29T07:32:41;99884.89;;;4.54;93.36
43683;BME280;29285;52.128;21.060;2022-12-29T07:37:42;99886.20;;;4.59;93.26
43683;BME280;29285;52.128;21.060;2022-12-29T07:42:43;99890.93;;;4.62;93.15
43683;BME280;29285;52.128;21.060;2022-12-29T07:47:47;99889.20;;;4.66;93.04
43683;BME280;29285;52.128;21.060;2022-12-29T07:52:49;99888.36;;;4.70;92.95
43683;BME280;29285;52.128;21.060;2022-12-29T07:57:55;99893.52;;;4.72;92.81
43683;BME280;29285;52.128;21.060;2022-12-29T08:02:57;99884.05;;;4.71;92.62
43683;BME280;29285;52.128;21.060;2022-12-29T08:07:58;99875.89;;;4.77;92.53
43683;BME280;29285;52.128;21.060;2022-12-29T08:12:59;99869.45;;;4.85;92.47
43683;BME280;29285;52.128;21.060;2022-12-29T08:18:02;99867.72;;;4.90;92.38
43683;BME280;29285;52.128;21.060;2022-12-29T08:23:04;99859.56;;;4.99;92.36
43683;BME280;29285;52.128;21.060;2022-12-29T08:28:05;99867.72;;;5.06;92.25
43683;BME280;29285;52.128;21.060;2022-12-29T08:33:06;99859.55;;;5.14;92.14
43683;BME280;29285;52.128;21.060;2022-12-29T08:38:08;99859.54;;;5.24;92.00
43683;BME280;29285;52.128;21.060;2022-12-29T08:43:11;99842.75;;;5.28;91.46
43683;BME280;29285;52.128;21.060;2022-12-29T08:48:12;99842.75;;;5.28;91.46
43683;BME280;29285;52.128;21.060;2022-12-29T08:53:14;99881.84;;;5.47;91.38
43683;BME280;29285;52.128;21.060;2022-12-29T08:58:15;99881.85;;;5.51;91.04
43683;BME280;29285;52.128;21.060;2022-12-29T09:03:17;99881.41;;;5.56;90.74
43683;BME280;29285;52.128;21.060;2022-12-29T09:08:19;99875.34;;;5.62;90.48
43683;BME280;29285;52.128;21.060;2022-12-29T09:13:21;99875.34;;;5.65;90.15
43683;BME280;29285;52.128;21.060;2022-12-29T09:18:23;99870.19;;;5.68;89.81
43683;BME280;29285;52.128;21.060;2022-12-29T09:23:24;99868.45;;;5.72;89.54
43683;BME280;29285;52.128;21.060;2022-12-29T09:28:25;99870.58;;;5.77;89.37
43683;BME280;29285;52.128;21.060;2022-12-29T09:33:29;99850.34;;;5.80;89.12
43683;BME280;29285;52.128;21.060;2022-12-29T09:38:30;99862.34;;;5.87;88.97
43683;BME280;29285;52.128;21.060;2022-12-29T09:49:28;99849.44;;;5.93;88.49
43683;BME280;29285;52.128;21.060;2022-12-29T09:54:58;99850.27;;;5.95;88.18
43683;BME280;29285;52.128;21.060;2022-12-29T10:00:16;99839.94;;;5.97;87.71
43683;BME280;29285;52.128;21.060;2022-12-29T10:05:32;99835.61;;;6.01;87.41
43683;BME280;29285;52.128;21.060;2022-12-29T10:16:19;99827.84;;;6.07;86.96
43683;BME280;29285;52.128;21.060;2022-12-29T10:27:03;99808.47;;;6.12;86.56
43683;BME280;29285;52.128;21.060;2022-12-29T10:32:26;99810.59;;;6.15;86.40
43683;BME280;29285;52.128;21.060;2022-12-29T10:37:38;99803.25;;;6.19;86.24
43683;BME280;29285;52.128;21.060;2022-12-29T10:42:45;99804.03;;;6.29;86.03
43683;BME280;29285;52.128;21.060;2022-12-29T10:47:54;99799.68;;;6.36;85.79
43683;BME280;29285;52.128;21.060;2022-12-29T10:53:00;99790.16;;;6.41;85.54
43683;BME280;29285;52.128;21.060;2022-12-29T10:58:07;99789.64;;;6.51;85.46
43683;BME280;29285;52.128;21.060;2022-12-29T11:09:02;99778.80;;;6.61;85.18
43683;BME280;29285;52.128;21.060;2022-12-29T11:14:20;99782.63;;;6.67;85.06
43683;BME280;29285;52.128;21.060;2022-12-29T11:19:27;99786.89;;;6.73;84.86
43683;BME280;29285;52.128;21.060;2022-12-29T11:24:31;99792.02;;;6.78;84.63
43683;BME280;29285;52.128;21.060;2022-12-29T11:29:40;99780.36;;;6.81;84.40
43683;BME280;29285;52.128;21.060;2022-12-29T11:34:43;99770.83;;;6.86;84.23
43683;BME280;29285;52.128;21.060;2022-12-29T11:40:02;99774.64;;;6.92;84.09
43683;BME280;29285;52.128;21.060;2022-12-29T11:45:29;99781.51;;;6.95;84.03
43683;BME280;29285;52.128;21.060;2022-12-29T11:50:24;99782.37;;;6.97;83.86
43683;BME280;29285;52.128;21.060;2022-12-29T11:55:30;99784.07;;;6.99;83.60
43683;BME280;29285;52.128;21.060;2022-12-29T12:00:34;99777.95;;;7.05;83.55
43683;BME280;29285;52.128;21.060;2022-12-29T12:05:41;99780.45;;;7.13;83.52
43683;BME280;29285;52.128;21.060;2022-12-29T12:16:08;99771.77;;;7.20;83.26
43683;BME280;29285;52.128;21.060;2022-12-29T12:21:34;99766.95;;;7.24;83.11
43683;BME280;29285;52.128;21.060;2022-12-29T12:31:57;99772.03;;;7.34;82.98
43683;BME280;29285;52.128;21.060;2022-12-29T12:48:28;99750.30;;;7.47;82.78
43683;BME280;29285;52.128;21.060;2022-12-29T13:21:42;99729.25;;;7.74;82.58
43683;BME280;29285;52.128;21.060;2022-12-29T13:32:27;99747.70;;;7.81;82.32
43683;BME280;29285;52.128;21.060;2022-12-29T13:43:16;99742.41;;;7.89;81.94
43683;BME280;29285;52.128;21.060;2022-12-29T13:48:24;99746.69;;;7.91;81.76
43683;BME280;29285;52.128;21.060;2022-12-29T13:59:36;99755.70;;;7.96;81.54
43683;BME280;29285;52.128;21.060;2022-12-29T14:04:41;99751.82;;;7.96;81.38
43683;BME280;29285;52.128;21.060;2022-12-29T14:09:49;99762.19;;;7.96;81.28
43683;BME280;29285;52.128;21.060;2022-12-29T14:14:52;99772.08;;;7.98;81.11
43683;BME280;29285;52.128;21.060;2022-12-29T14:19:53;99757.83;;;7.98;80.96
43683;BME280;29285;52.128;21.060;2022-12-29T14:24:55;99761.67;;;8.01;80.93
43683;BME280;29285;52.128;21.060;2022-12-29T14:29:57;99768.16;;;8.01;80.86
43683;BME280;29285;52.128;21.060;2022-12-29T14:35:00;99756.91;;;8.02;80.79
43683;BME280;29285;52.128;21.060;2022-12-29T14:40:24;99749.06;;;8.05;80.80
43683;BME280;29285;52.128;21.060;2022-12-29T14:45:29;99746.05;;;8.06;80.76
43683;BME280;29285;52.128;21.060;2022-12-29T14:50:42;99747.33;;;8.07;80.66
43683;BME280;29285;52.128;21.060;2022-12-29T14:55:46;99742.55;;;8.08;80.61
43683;BME280;29285;52.128;21.060;2022-12-29T15:00:50;99742.97;;;8.10;80.54
43683;BME280;29285;52.128;21.060;2022-12-29T15:05:56;99751.59;;;8.12;80.41
43683;BME280;29285;52.128;21.060;2022-12-29T15:11:06;99746.80;;;8.14;80.34
43683;BME280;29285;52.128;21.060;2022-12-29T15:16:31;99748.09;;;8.14;80.29
43683;BME280;29285;52.128;21.060;2022-12-29T15:21:36;99741.14;;;8.16;80.21
43683;BME280;29285;52.128;21.060;2022-12-29T15:26:44;99755.38;;;8.18;80.15
43683;BME280;29285;52.128;21.060;2022-12-29T15:31:50;99749.29;;;8.20;80.03
43683;BME280;29285;52.128;21.060;2022-12-29T15:36:51;99764.34;;;8.24;79.92
43683;BME280;29285;52.128;21.060;2022-12-29T15:41:59;99760.84;;;8.27;79.94
43683;BME280;29285;52.128;21.060;2022-12-29T15:47:21;99758.25;;;8.27;79.89
43683;BME280;29285;52.128;21.060;2022-12-29T15:52:24;99752.23;;;8.26;79.84
43683;BME280;29285;52.128;21.060;2022-12-29T15:57:28;99750.55;;;8.24;79.76
43683;BME280;29285;52.128;21.060;2022-12-29T16:02:33;99752.29;;;8.21;79.69
43683;BME280;29285;52.128;21.060;2022-12-29T16:07:35;99751.47;;;8.19;79.63
43683;BME280;29285;52.128;21.060;2022-12-29T16:12:37;99759.28;;;8.16;79.57
43683;BME280;29285;52.128;21.060;2022-12-29T16:17:51;99757.58;;;8.15;79.55
43683;BME280;29285;52.128;21.060;2022-12-29T16:22:57;99760.20;;;8.12;79.53
43683;BME280;29285;52.128;21.060;2022-12-29T16:27:58;99761.98;;;8.08;79.55
43683;BME280;29285;52.128;21.060;2022-12-29T16:33:03;99758.58;;;8.06;79.55
43683;BME280;29285;52.128;21.060;2022-12-29T16:38:22;99768.16;;;8.01;79.56
43683;BME280;29285;52.128;21.060;2022-12-29T16:43:31;99756.94;;;7.99;79.59
43683;BME280;29285;52.128;21.060;2022-12-29T16:48:42;99760.91;;;7.94;79.62
43683;BME280;29285;52.128;21.060;2022-12-29T16:53:55;99771.70;;;7.94;79.68
43683;BME280;29285;52.128;21.060;2022-12-29T17:04:09;99786.41;;;7.93;79.83
43683;BME280;29285;52.128;21.060;2022-12-29T17:09:26;99781.23;;;7.92;79.92
43683;BME280;29285;52.128;21.060;2022-12-29T17:14:43;99782.53;;;7.92;79.94
43683;BME280;29285;52.128;21.060;2022-12-29T17:19:51;99785.55;;;7.91;79.99
43683;BME280;29285;52.128;21.060;2022-12-29T17:24:57;99780.83;;;7.91;80.05
43683;BME280;29285;52.128;21.060;2022-12-29T17:30:03;99781.25;;;7.90;80.03
43683;BME280;29285;52.128;21.060;2022-12-29T17:35:14;99782.55;;;7.90;80.10
43683;BME280;29285;52.128;21.060;2022-12-29T17:40:22;99783.44;;;7.89;80.14
43683;BME280;29285;52.128;21.060;2022-12-29T17:45:27;99778.17;;;7.94;80.27
43683;BME280;29285;52.128;21.060;2022-12-29T17:50:30;99780.33;;;7.96;80.39
43683;BME280;29285;52.128;21.060;2022-12-29T17:55:33;99779.94;;;7.92;80.39
43683;BME280;29285;52.128;21.060;2022-12-29T18:00:35;99773.47;;;7.92;80.42
43683;BME280;29285;52.128;21.060;2022-12-29T18:05:36;99776.97;;;7.88;80.40
43683;BME280;29285;52.128;21.060;2022-12-29T18:15:39;99781.78;;;7.82;80.43
43683;BME280;29285;52.128;21.060;2022-12-29T18:20:42;99796.52;;;7.78;80.47
43683;BME280;29285;52.128;21.060;2022-12-29T18:25:58;99797.83;;;7.77;80.53
43683;BME280;29285;52.128;21.060;2022-12-29T18:31:01;99802.17;;;7.76;80.63
43683;BME280;29285;52.128;21.060;2022-12-29T18:36:04;99802.20;;;7.73;80.67
43683;BME280;29285;52.128;21.060;2022-12-29T18:41:11;99812.57;;;7.72;80.78
43683;BME280;29285;52.128;21.060;2022-12-29T18:46:17;99810.87;;;7.69;80.84
43683;BME280;29285;52.128;21.060;2022-12-29T18:51:21;99796.69;;;7.66;80.92
43683;BME280;29285;52.128;21.060;2022-12-29T18:56:23;99786.75;;;7.67;81.01
43683;BME280;29285;52.128;21.060;2022-12-29T19:01:26;99789.34;;;7.67;81.12
43683;BME280;29285;52.128;21.060;2022-12-29T19:06:27;99788.92;;;7.66;81.23
43683;BME280;29285;52.128;21.060;2022-12-29T19:11:29;99788.04;;;7.67;81.29
43683;BME280;29285;52.128;21.060;2022-12-29T19:16:30;99790.13;;;7.72;81.40
43683;BME280;29285;52.128;21.060;2022-12-29T19:21:32;99789.25;;;7.73;81.51
43683;BME280;29285;52.128;21.060;2022-12-29T19:26:36;99784.45;;;7.77;81.60
43683;BME280;29285;52.128;21.060;2022-12-29T19:31:38;99789.61;;;7.80;81.66
43683;BME280;29285;52.128;21.060;2022-12-29T19:36:41;99792.19;;;7.80;81.69
43683;BME280;29285;52.128;21.060;2022-12-29T19:41:43;99790.03;;;7.80;81.69
43683;BME280;29285;52.128;21.060;2022-12-29T19:46:44;99792.55;;;7.85;81.77
43683;BME280;29285;52.128;21.060;2022-12-29T19:51:45;99806.35;;;7.87;81.82
43683;BME280;29285;52.128;21.060;2022-12-29T19:56:47;99802.05;;;7.86;81.80
43683;BME280;29285;52.128;21.060;2022-12-29T20:01:48;99795.14;;;7.85;81.79
43683;BME280;29285;52.128;21.060;2022-12-29T20:06:50;99799.01;;;7.86;81.82
43683;BME280;29285;52.128;21.060;2022-12-29T20:11:51;99791.63;;;7.89;81.89
43683;BME280;29285;52.128;21.060;2022-12-29T20:16:52;99801.16;;;7.88;81.86
43683;BME280;29285;52.128;21.060;2022-12-29T20:21:53;99798.96;;;7.91;81.89
43683;BME280;29285;52.128;21.060;2022-12-29T20:26:55;99793.34;;;7.90;81.92
43683;BME280;29285;52.128;21.060;2022-12-29T20:31:57;99792.48;;;7.91;81.92
43683;BME280;29285;52.128;21.060;2022-12-29T20:36:58;99785.55;;;7.91;81.95
43683;BME280;29285;52.128;21.060;2022-12-29T20:41:59;99791.60;;;7.92;81.98
43683;BME280;29285;52.128;21.060;2022-12-29T20:47:01;99795.91;;;7.91;82.02
43683;BME280;29285;52.128;21.060;2022-12-29T20:52:05;99802.84;;;7.91;82.05
43683;BME280;29285;52.128;21.060;2022-12-29T20:57:06;99810.17;;;7.90;82.07
43683;BME280;29285;52.128;21.060;2022-12-29T21:02:20;99802.87;;;7.88;82.11
43683;BME280;29285;52.128;21.060;2022-12-29T21:07:22;99802.87;;;7.88;82.16
43683;BME280;29285;52.128;21.060;2022-12-29T21:12:23;99806.77;;;7.88;82.22
43683;BME280;29285;52.128;21.060;2022-12-29T21:17:24;99814.95;;;7.89;82.29
43683;BME280;29285;52.128;21.060;2022-12-29T21:22:26;99804.14;;;7.91;82.37
43683;BME280;29285;52.128;21.060;2022-12-29T21:27:27;99802.84;;;7.91;82.44
43683;BME280;29285;52.128;21.060;2022-12-29T21:32:29;99804.56;;;7.92;82.48
43683;BME280;29285;52.128;21.060;2022-12-29T21:37:30;99804.16;;;7.89;82.49
43683;BME280;29285;52.128;21.060;2022-12-29T21:42:31;99802.47;;;7.87;82.46
43683;BME280;29285;52.128;21.060;2022-12-29T21:47:33;99802.91;;;7.85;82.42
43683;BME280;29285;52.128;21.060;2022-12-29T21:52:53;99804.20;;;7.85;82.46
43683;BME280;29285;52.128;21.060;2022-12-29T21:57:54;99795.58;;;7.86;82.48
43683;BME280;29285;52.128;21.060;2022-12-29T22:03:14;99802.47;;;7.87;82.55
43683;BME280;29285;52.128;21.060;2022-12-29T22:08:33;99808.47;;;7.89;82.62
43683;BME280;29285;52.128;21.060;2022-12-29T22:13:52;99798.11;;;7.89;82.62
43683;BME280;29285;52.128;21.060;2022-12-29T22:18:56;99806.73;;;7.91;82.66
43683;BME280;29285;52.128;21.060;2022-12-29T22:23:57;99809.75;;;7.90;82.66
43683;BME280;29285;52.128;21.060;2022-12-29T22:29:00;99806.75;;;7.89;82.63
43683;BME280;29285;52.128;21.060;2022-12-29T22:34:03;99809.36;;;7.88;82.61
43683;BME280;29285;52.128;21.060;2022-12-29T22:39:04;99817.16;;;7.85;82.57
43683;BME280;29285;52.128;21.060;2022-12-29T22:44:05;99830.61;;;7.79;82.50
43683;BME280;29285;52.128;21.060;2022-12-29T22:49:07;99837.59;;;7.73;82.40
43683;BME280;29285;52.128;21.060;2022-12-29T22:54:08;99839.84;;;7.67;82.36
43683;BME280;29285;52.128;21.060;2022-12-29T22:59:10;99849.82;;;7.61;82.29
43683;BME280;29285;52.128;21.060;2022-12-29T23:04:12;99856.84;;;7.53;82.21
43683;BME280;29285;52.128;21.060;2022-12-29T23:09:17;99851.30;;;7.46;82.17
43683;BME280;29285;52.128;21.060;2022-12-29T23:14:19;99849.69;;;7.34;82.09
43683;BME280;29285;52.128;21.060;2022-12-29T23:19:21;99857.53;;;7.26;82.07
43683;BME280;29285;52.128;21.060;2022-12-29T23:24:22;99862.31;;;7.22;82.11
43683;BME280;29285;52.128;21.060;2022-12-29T23:29:23;99861.48;;;7.20;82.20
43683;BME280;29285;52.128;21.060;2022-12-29T23:34:25;99862.80;;;7.17;82.29
43683;BME280;29285;52.128;21.060;2022-12-29T23:39:26;99868.02;;;7.13;82.35
43683;BME280;29285;52.128;21.060;2022-12-29T23:44:28;99861.55;;;7.12;82.43
43683;BME280;29285;52.128;21.060;2022-12-29T23:49:30;99870.61;;;7.12;82.52
43683;BME280;29285;52.128;21.060;2022-12-29T23:54:31;99864.61;;;7.10;82.63
43683;BME280;29285;52.128;21.060;2022-12-29T23:59:33;99863.27;;;7.11;82.72
